sensor_id;sensor_type;location;lat;lon;timestamp;temperature;humidity
67893;DHT22;54688;52.376;16.744;2023-11-19T00:01:27;0.9;85.3
67893;DHT22;54688;52.376;16.744;2023-11-19T00:04:30;0.9;85
67893;DHT22;54688;52.376;16.744;2023-11-19T00:07:33;0.8;85
67893;DHT22;54688;52.376;16.744;2023-11-19T00:10:35;0.7;84.9
67893;DHT22;54688;52.376;16.744;2023-11-19T00:13:37;0.6;84.9
67893;DHT22;54688;52.376;16.744;2023-11-19T00:16:39;0.5;84.7
67893;DHT22;54688;52.376;16.744;2023-11-19T00:19:41;0.5;84.9
67893;DHT22;54688;52.376;16.744;2023-11-19T00:22:44;0.4;84.9
67893;DHT22;54688;52.376;16.744;2023-11-19T00:25:47;0.4;84.9
67893;DHT22;54688;52.376;16.744;2023-11-19T00:28:49;0.3;84.9
67893;DHT22;54688;52.376;16.744;2023-11-19T00:31:51;0.3;84.9
67893;DHT22;54688;52.376;16.744;2023-11-19T00:34:55;0.3;85
67893;DHT22;54688;52.376;16.744;2023-11-19T00:37:56;0.2;85
67893;DHT22;54688;52.376;16.744;2023-11-19T00:40:59;0.2;85.1
67893;DHT22;54688;52.376;16.744;2023-11-19T00:44:01;0.2;85.1
67893;DHT22;54688;52.376;16.744;2023-11-19T00:47:03;0.1;85.1
67893;DHT22;54688;52.376;16.744;2023-11-19T00:50:06;0.1;85.2
67893;DHT22;54688;52.376;16.744;2023-11-19T00:53:09;0.1;85.2
67893;DHT22;54688;52.376;16.744;2023-11-19T00:56:12;0.1;85.3
67893;DHT22;54688;52.376;16.744;2023-11-19T00:59:14;0.1;85.3
67893;DHT22;54688;52.376;16.744;2023-11-19T01:02:16;0.2;85.4
67893;DHT22;54688;52.376;16.744;2023-11-19T01:05:18;0.2;85.4
67893;DHT22;54688;52.376;16.744;2023-11-19T01:08:21;0.2;85.3
67893;DHT22;54688;52.376;16.744;2023-11-19T01:11:24;0.2;85.3
67893;DHT22;54688;52.376;16.744;2023-11-19T01:14:26;0.2;85.3
67893;DHT22;54688;52.376;16.744;2023-11-19T01:17:29;0.2;85.2
67893;DHT22;54688;52.376;16.744;2023-11-19T01:20:31;0.2;85.2
67893;DHT22;54688;52.376;16.744;2023-11-19T01:23:34;0.2;85.2
67893;DHT22;54688;52.376;16.744;2023-11-19T01:26:36;0.2;85.3
67893;DHT22;54688;52.376;16.744;2023-11-19T01:29:38;0.2;85.3
67893;DHT22;54688;52.376;16.744;2023-11-19T01:32:40;0.2;85.3
67893;DHT22;54688;52.376;16.744;2023-11-19T01:35:42;0.3;85.3
67893;DHT22;54688;52.376;16.744;2023-11-19T01:38:44;0.3;85.3
67893;DHT22;54688;52.376;16.744;2023-11-19T01:41:46;0.3;85.3
67893;DHT22;54688;52.376;16.744;2023-11-19T01:44:57;0.3;85.4
67893;DHT22;54688;52.376;16.744;2023-11-19T01:48:02;0.3;85.4
67893;DHT22;54688;52.376;16.744;2023-11-19T01:51:05;0.3;85.5
67893;DHT22;54688;52.376;16.744;2023-11-19T01:54:07;0.3;85.5
67893;DHT22;54688;52.376;16.744;2023-11-19T01:57:10;0.4;85.6
67893;DHT22;54688;52.376;16.744;2023-11-19T02:00:12;0.4;85.6
67893;DHT22;54688;52.376;16.744;2023-11-19T02:03:15;0.4;85.6
67893;DHT22;54688;52.376;16.744;2023-11-19T02:06:18;0.4;85.5
67893;DHT22;54688;52.376;16.744;2023-11-19T02:09:20;0.5;85.4
67893;DHT22;54688;52.376;16.744;2023-11-19T02:12:22;0.5;85.4
67893;DHT22;54688;52.376;16.744;2023-11-19T02:15:24;0.5;85.4
67893;DHT22;54688;52.376;16.744;2023-11-19T02:18:27;0.5;85.5
67893;DHT22;54688;52.376;16.744;2023-11-19T02:21:29;0.5;85.6
67893;DHT22;54688;52.376;16.744;2023-11-19T02:24:32;0.5;85.6
67893;DHT22;54688;52.376;16.744;2023-11-19T02:27:44;0.6;85.5
67893;DHT22;54688;52.376;16.744;2023-11-19T02:30:48;0.6;85.6
67893;DHT22;54688;52.376;16.744;2023-11-19T02:33:50;0.5;85.3
67893;DHT22;54688;52.376;16.744;2023-11-19T02:36:52;0.6;85.4
67893;DHT22;54688;52.376;16.744;2023-11-19T02:39:54;0.6;85.4
67893;DHT22;54688;52.376;16.744;2023-11-19T02:42:57;0.6;85.5
67893;DHT22;54688;52.376;16.744;2023-11-19T02:46:00;0.6;85.5
67893;DHT22;54688;52.376;16.744;2023-11-19T02:49:02;0.6;85.5
67893;DHT22;54688;52.376;16.744;2023-11-19T02:52:04;0.6;85.5
67893;DHT22;54688;52.376;16.744;2023-11-19T02:55:07;0.7;85.7
67893;DHT22;54688;52.376;16.744;2023-11-19T02:58:09;0.7;85.8
67893;DHT22;54688;52.376;16.744;2023-11-19T03:01:12;0.7;85.6
67893;DHT22;54688;52.376;16.744;2023-11-19T03:04:14;0.8;85.6
67893;DHT22;54688;52.376;16.744;2023-11-19T03:07:16;0.8;85.6
67893;DHT22;54688;52.376;16.744;2023-11-19T03:10:18;0.8;85.5
67893;DHT22;54688;52.376;16.744;2023-11-19T03:13:21;0.8;85.5
67893;DHT22;54688;52.376;16.744;2023-11-19T03:16:23;0.8;85.5
67893;DHT22;54688;52.376;16.744;2023-11-19T03:19:25;0.8;85.6
67893;DHT22;54688;52.376;16.744;2023-11-19T03:22:27;0.8;85.5
67893;DHT22;54688;52.376;16.744;2023-11-19T03:25:29;0.9;85.5
67893;DHT22;54688;52.376;16.744;2023-11-19T03:28:32;0.8;85.5
67893;DHT22;54688;52.376;16.744;2023-11-19T03:31:34;0.8;85.5
67893;DHT22;54688;52.376;16.744;2023-11-19T03:34:36;0.9;85.4
67893;DHT22;54688;52.376;16.744;2023-11-19T03:37:38;0.8;85.4
67893;DHT22;54688;52.376;16.744;2023-11-19T03:40:40;0.9;85.6
67893;DHT22;54688;52.376;16.744;2023-11-19T03:43:42;0.8;86
67893;DHT22;54688;52.376;16.744;2023-11-19T03:46:44;0.8;85.6
67893;DHT22;54688;52.376;16.744;2023-11-19T03:49:48;0.9;85.6
67893;DHT22;54688;52.376;16.744;2023-11-19T03:52:50;0.9;85.7
67893;DHT22;54688;52.376;16.744;2023-11-19T03:55:53;0.9;85.7
67893;DHT22;54688;52.376;16.744;2023-11-19T03:58:55;0.9;85.5
67893;DHT22;54688;52.376;16.744;2023-11-19T04:01:57;0.9;85.6
67893;DHT22;54688;52.376;16.744;2023-11-19T04:04:59;0.9;85.6
67893;DHT22;54688;52.376;16.744;2023-11-19T04:08:01;1;85.8
67893;DHT22;54688;52.376;16.744;2023-11-19T04:11:03;1;85.7
67893;DHT22;54688;52.376;16.744;2023-11-19T04:14:06;1;85.6
67893;DHT22;54688;52.376;16.744;2023-11-19T04:17:08;1;85.5
67893;DHT22;54688;52.376;16.744;2023-11-19T04:20:11;1;85.5
67893;DHT22;54688;52.376;16.744;2023-11-19T04:23:14;1.1;86.2
67893;DHT22;54688;52.376;16.744;2023-11-19T04:26:16;1.1;85.6
67893;DHT22;54688;52.376;16.744;2023-11-19T04:29:19;1.1;85.6
67893;DHT22;54688;52.376;16.744;2023-11-19T04:32:20;1.1;85.6
67893;DHT22;54688;52.376;16.744;2023-11-19T04:35:23;1.1;85.6
67893;DHT22;54688;52.376;16.744;2023-11-19T04:38:24;1.1;86.1
67893;DHT22;54688;52.376;16.744;2023-11-19T04:41:27;1.1;86.1
67893;DHT22;54688;52.376;16.744;2023-11-19T04:44:29;1.1;85.3
67893;DHT22;54688;52.376;16.744;2023-11-19T04:47:32;1.1;85.4
67893;DHT22;54688;52.376;16.744;2023-11-19T04:50:33;1.1;85.4
67893;DHT22;54688;52.376;16.744;2023-11-19T04:53:37;1.1;85.5
67893;DHT22;54688;52.376;16.744;2023-11-19T04:56:39;1.1;85.6
67893;DHT22;54688;52.376;16.744;2023-11-19T04:59:41;1.1;85.6
67893;DHT22;54688;52.376;16.744;2023-11-19T05:02:43;1.1;85.6
67893;DHT22;54688;52.376;16.744;2023-11-19T05:05:45;1.1;85.6
67893;DHT22;54688;52.376;16.744;2023-11-19T05:08:48;1.1;85.8
67893;DHT22;54688;52.376;16.744;2023-11-19T05:11:50;1.1;85.6
67893;DHT22;54688;52.376;16.744;2023-11-19T05:14:53;1.1;85.4
67893;DHT22;54688;52.376;16.744;2023-11-19T05:17:55;1.1;85.7
67893;DHT22;54688;52.376;16.744;2023-11-19T05:20:56;1.1;85.7
67893;DHT22;54688;52.376;16.744;2023-11-19T05:23:58;1.1;85.8
67893;DHT22;54688;52.376;16.744;2023-11-19T05:27:00;1.1;85.7
67893;DHT22;54688;52.376;16.744;2023-11-19T05:30:04;1.2;85.8
67893;DHT22;54688;52.376;16.744;2023-11-19T05:33:07;1.2;85.7
67893;DHT22;54688;52.376;16.744;2023-11-19T05:36:10;1.2;85.7
67893;DHT22;54688;52.376;16.744;2023-11-19T05:39:13;1.2;85.5
67893;DHT22;54688;52.376;16.744;2023-11-19T05:42:15;1.2;85.5
67893;DHT22;54688;52.376;16.744;2023-11-19T05:45:17;1.2;85.4
67893;DHT22;54688;52.376;16.744;2023-11-19T05:48:20;1.2;85.4
67893;DHT22;54688;52.376;16.744;2023-11-19T05:51:22;1.2;85.5
67893;DHT22;54688;52.376;16.744;2023-11-19T05:54:25;1.2;85.9
67893;DHT22;54688;52.376;16.744;2023-11-19T05:57:27;1.2;85.4
67893;DHT22;54688;52.376;16.744;2023-11-19T06:00:28;1.2;85.4
67893;DHT22;54688;52.376;16.744;2023-11-19T06:03:30;1.3;85.5
67893;DHT22;54688;52.376;16.744;2023-11-19T06:06:33;1.2;85.3
67893;DHT22;54688;52.376;16.744;2023-11-19T06:09:36;1.2;85.4
67893;DHT22;54688;52.376;16.744;2023-11-19T06:12:38;1.2;85.6
67893;DHT22;54688;52.376;16.744;2023-11-19T06:15:41;1.2;85.1
67893;DHT22;54688;52.376;16.744;2023-11-19T06:18:43;1.2;85.2
67893;DHT22;54688;52.376;16.744;2023-11-19T06:21:46;1.2;85.2
67893;DHT22;54688;52.376;16.744;2023-11-19T06:24:47;1.2;85.2
67893;DHT22;54688;52.376;16.744;2023-11-19T06:27:50;1.2;85.2
67893;DHT22;54688;52.376;16.744;2023-11-19T06:30:52;1.2;85.2
67893;DHT22;54688;52.376;16.744;2023-11-19T06:33:54;1.2;85.4
67893;DHT22;54688;52.376;16.744;2023-11-19T06:36:57;1.2;85.4
67893;DHT22;54688;52.376;16.744;2023-11-19T06:39:58;1.2;85.5
67893;DHT22;54688;52.376;16.744;2023-11-19T06:43:01;1.2;85.5
67893;DHT22;54688;52.376;16.744;2023-11-19T06:46:04;1.2;85.6
67893;DHT22;54688;52.376;16.744;2023-11-19T06:49:06;1.2;85.7
67893;DHT22;54688;52.376;16.744;2023-11-19T06:52:08;1.2;85.6
67893;DHT22;54688;52.376;16.744;2023-11-19T06:55:11;1.2;85.6
67893;DHT22;54688;52.376;16.744;2023-11-19T06:58:13;1.3;86.1
67893;DHT22;54688;52.376;16.744;2023-11-19T07:01:16;1.3;85.9
67893;DHT22;54688;52.376;16.744;2023-11-19T07:04:18;1.3;85.8
67893;DHT22;54688;52.376;16.744;2023-11-19T07:07:20;1.3;85.9
67893;DHT22;54688;52.376;16.744;2023-11-19T07:10:23;1.3;85.8
67893;DHT22;54688;52.376;16.744;2023-11-19T07:13:25;1.4;86.7
67893;DHT22;54688;52.376;16.744;2023-11-19T07:16:27;1.4;85.9
67893;DHT22;54688;52.376;16.744;2023-11-19T07:19:30;1.4;85.8
67893;DHT22;54688;52.376;16.744;2023-11-19T07:22:33;1.5;85.8
67893;DHT22;54688;52.376;16.744;2023-11-19T07:25:35;1.5;85.8
67893;DHT22;54688;52.376;16.744;2023-11-19T07:28:38;1.5;85.1
67893;DHT22;54688;52.376;16.744;2023-11-19T07:31:40;1.6;85.8
67893;DHT22;54688;52.376;16.744;2023-11-19T07:34:42;1.6;85.8
67893;DHT22;54688;52.376;16.744;2023-11-19T07:37:45;1.6;85.8
67893;DHT22;54688;52.376;16.744;2023-11-19T07:40:46;1.6;85.7
67893;DHT22;54688;52.376;16.744;2023-11-19T07:43:49;1.6;85.9
67893;DHT22;54688;52.376;16.744;2023-11-19T07:46:51;1.6;85.5
67893;DHT22;54688;52.376;16.744;2023-11-19T07:49:53;1.6;85.2
67893;DHT22;54688;52.376;16.744;2023-11-19T07:52:55;1.7;85.4
67893;DHT22;54688;52.376;16.744;2023-11-19T07:55:58;1.7;85.4
67893;DHT22;54688;52.376;16.744;2023-11-19T07:59:00;1.7;85.3
67893;DHT22;54688;52.376;16.744;2023-11-19T08:02:02;1.8;85.4
67893;DHT22;54688;52.376;16.744;2023-11-19T08:05:05;1.8;85.3
67893;DHT22;54688;52.376;16.744;2023-11-19T08:08:07;1.8;85.3
67893;DHT22;54688;52.376;16.744;2023-11-19T08:11:10;1.9;85.4
67893;DHT22;54688;52.376;16.744;2023-11-19T08:14:12;1.9;85.8
67893;DHT22;54688;52.376;16.744;2023-11-19T08:17:14;1.9;85.5
67893;DHT22;54688;52.376;16.744;2023-11-19T08:20:16;2;85.6
67893;DHT22;54688;52.376;16.744;2023-11-19T08:23:18;2;85.7
67893;DHT22;54688;52.376;16.744;2023-11-19T08:26:21;2;86.3
67893;DHT22;54688;52.376;16.744;2023-11-19T08:29:23;2.1;85.6
67893;DHT22;54688;52.376;16.744;2023-11-19T08:32:25;2.1;85.4
67893;DHT22;54688;52.376;16.744;2023-11-19T08:35:28;2.1;85.4
67893;DHT22;54688;52.376;16.744;2023-11-19T08:38:30;2.1;84.7
67893;DHT22;54688;52.376;16.744;2023-11-19T08:41:32;2.1;85.1
67893;DHT22;54688;52.376;16.744;2023-11-19T08:44:34;2.2;84.5
67893;DHT22;54688;52.376;16.744;2023-11-19T08:47:37;2.2;85.1
67893;DHT22;54688;52.376;16.744;2023-11-19T08:50:39;2.2;85.1
67893;DHT22;54688;52.376;16.744;2023-11-19T08:53:41;2.2;85.9
67893;DHT22;54688;52.376;16.744;2023-11-19T08:56:43;2.2;85
67893;DHT22;54688;52.376;16.744;2023-11-19T08:59:45;2.1;85.4
67893;DHT22;54688;52.376;16.744;2023-11-19T09:02:47;2.1;85.6
67893;DHT22;54688;52.376;16.744;2023-11-19T09:05:50;2.1;84.7
67893;DHT22;54688;52.376;16.744;2023-11-19T09:08:52;2.1;84.5
67893;DHT22;54688;52.376;16.744;2023-11-19T09:11:58;2;84
67893;DHT22;54688;52.376;16.744;2023-11-19T09:15:00;1.9;83.8
67893;DHT22;54688;52.376;16.744;2023-11-19T09:18:02;1.9;83.6
67893;DHT22;54688;52.376;16.744;2023-11-19T09:21:05;1.8;83.5
67893;DHT22;54688;52.376;16.744;2023-11-19T09:24:07;1.7;83.2
67893;DHT22;54688;52.376;16.744;2023-11-19T09:27:10;1.7;83.1
67893;DHT22;54688;52.376;16.744;2023-11-19T09:30:13;1.6;83.3
67893;DHT22;54688;52.376;16.744;2023-11-19T09:33:15;1.5;83.4
67893;DHT22;54688;52.376;16.744;2023-11-19T09:36:18;1.5;83.2
67893;DHT22;54688;52.376;16.744;2023-11-19T09:39:20;1.4;83.2
67893;DHT22;54688;52.376;16.744;2023-11-19T09:42:23;1.4;83.3
67893;DHT22;54688;52.376;16.744;2023-11-19T09:45:27;1.4;83.6
67893;DHT22;54688;52.376;16.744;2023-11-19T09:48:30;1.3;83.6
67893;DHT22;54688;52.376;16.744;2023-11-19T09:51:37;1.3;83.8
67893;DHT22;54688;52.376;16.744;2023-11-19T09:54:40;1.3;83.9
67893;DHT22;54688;52.376;16.744;2023-11-19T09:57:42;1.3;83.9
67893;DHT22;54688;52.376;16.744;2023-11-19T10:00:46;1.3;83.8
67893;DHT22;54688;52.376;16.744;2023-11-19T10:03:50;1.3;83.8
67893;DHT22;54688;52.376;16.744;2023-11-19T10:06:57;1.3;83.2
67893;DHT22;54688;52.376;16.744;2023-11-19T10:09:59;1.2;83.6
67893;DHT22;54688;52.376;16.744;2023-11-19T10:13:02;1.2;83.6
67893;DHT22;54688;52.376;16.744;2023-11-19T10:16:04;1.2;83.7
67893;DHT22;54688;52.376;16.744;2023-11-19T10:19:11;1.3;83.7
67893;DHT22;54688;52.376;16.744;2023-11-19T10:22:20;1.2;83.2
67893;DHT22;54688;52.376;16.744;2023-11-19T10:25:25;1.2;84.6
67893;DHT22;54688;52.376;16.744;2023-11-19T10:28:28;1.2;83.9
67893;DHT22;54688;52.376;16.744;2023-11-19T10:31:43;1.2;84
67893;DHT22;54688;52.376;16.744;2023-11-19T10:35:04;1.2;83.3
67893;DHT22;54688;52.376;16.744;2023-11-19T10:38:13;1.2;84.1
67893;DHT22;54688;52.376;16.744;2023-11-19T10:41:26;1.1;84.2
67893;DHT22;54688;52.376;16.744;2023-11-19T10:44:30;1.2;83.4
67893;DHT22;54688;52.376;16.744;2023-11-19T10:47:33;1.2;84.9
67893;DHT22;54688;52.376;16.744;2023-11-19T10:50:37;1.2;84.5
67893;DHT22;54688;52.376;16.744;2023-11-19T10:53:41;1.2;84.4
67893;DHT22;54688;52.376;16.744;2023-11-19T10:56:44;1.2;84.5
67893;DHT22;54688;52.376;16.744;2023-11-19T10:59:58;1.3;84.9
67893;DHT22;54688;52.376;16.744;2023-11-19T11:06:03;1.3;84.5
67893;DHT22;54688;52.376;16.744;2023-11-19T11:09:08;1.3;84.5
67893;DHT22;54688;52.376;16.744;2023-11-19T11:12:11;1.4;84.5
67893;DHT22;54688;52.376;16.744;2023-11-19T11:15:14;1.3;85
67893;DHT22;54688;52.376;16.744;2023-11-19T11:18:17;1.4;83.6
67893;DHT22;54688;52.376;16.744;2023-11-19T11:21:20;1.4;84.6
67893;DHT22;54688;52.376;16.744;2023-11-19T11:24:31;1.4;84.5
67893;DHT22;54688;52.376;16.744;2023-11-19T11:27:48;1.4;84.4
67893;DHT22;54688;52.376;16.744;2023-11-19T11:31:03;1.4;84.7
67893;DHT22;54688;52.376;16.744;2023-11-19T11:34:24;1.5;84.2
67893;DHT22;54688;52.376;16.744;2023-11-19T11:37:42;1.5;84.5
67893;DHT22;54688;52.376;16.744;2023-11-19T11:40:53;1.5;83.7
67893;DHT22;54688;52.376;16.744;2023-11-19T11:44:17;1.6;84.1
67893;DHT22;54688;52.376;16.744;2023-11-19T11:47:19;1.6;84.5
67893;DHT22;54688;52.376;16.744;2023-11-19T11:50:22;1.6;84
67893;DHT22;54688;52.376;16.744;2023-11-19T11:53:25;1.6;84.5
67893;DHT22;54688;52.376;16.744;2023-11-19T11:56:32;1.6;84
67893;DHT22;54688;52.376;16.744;2023-11-19T11:59:50;1.7;84.1
67893;DHT22;54688;52.376;16.744;2023-11-19T12:02:54;1.7;84.1
67893;DHT22;54688;52.376;16.744;2023-11-19T12:05:57;1.7;83.9
67893;DHT22;54688;52.376;16.744;2023-11-19T12:09:00;1.7;83.9
67893;DHT22;54688;52.376;16.744;2023-11-19T12:12:07;1.8;83.8
67893;DHT22;54688;52.376;16.744;2023-11-19T12:15:14;1.8;83.8
67893;DHT22;54688;52.376;16.744;2023-11-19T12:18:16;1.8;83.7
67893;DHT22;54688;52.376;16.744;2023-11-19T12:21:28;1.8;83.6
67893;DHT22;54688;52.376;16.744;2023-11-19T12:24:31;1.9;83.6
67893;DHT22;54688;52.376;16.744;2023-11-19T12:27:33;1.9;83.5
67893;DHT22;54688;52.376;16.744;2023-11-19T12:30:35;1.9;83.6
67893;DHT22;54688;52.376;16.744;2023-11-19T12:33:38;1.9;83.6
67893;DHT22;54688;52.376;16.744;2023-11-19T12:36:40;1.9;83.7
67893;DHT22;54688;52.376;16.744;2023-11-19T12:39:44;1.9;84.2
67893;DHT22;54688;52.376;16.744;2023-11-19T12:42:46;1.9;84.7
67893;DHT22;54688;52.376;16.744;2023-11-19T12:45:48;1.9;84.1
67893;DHT22;54688;52.376;16.744;2023-11-19T12:48:51;1.9;84.1
67893;DHT22;54688;52.376;16.744;2023-11-19T12:51:53;1.9;84.2
67893;DHT22;54688;52.376;16.744;2023-11-19T12:54:56;1.9;84.2
67893;DHT22;54688;52.376;16.744;2023-11-19T12:57:58;2;84.3
67893;DHT22;54688;52.376;16.744;2023-11-19T13:01:01;2;84.4
67893;DHT22;54688;52.376;16.744;2023-11-19T13:04:15;2;84.3
67893;DHT22;54688;52.376;16.744;2023-11-19T13:07:20;2.1;84.4
67893;DHT22;54688;52.376;16.744;2023-11-19T13:10:22;2.1;84.4
67893;DHT22;54688;52.376;16.744;2023-11-19T13:13:24;2.1;84.5
67893;DHT22;54688;52.376;16.744;2023-11-19T13:19:26;2.1;84.4
67893;DHT22;54688;52.376;16.744;2023-11-19T13:22:29;2.1;84.5
67893;DHT22;54688;52.376;16.744;2023-11-19T13:25:31;2.1;84.6
67893;DHT22;54688;52.376;16.744;2023-11-19T13:28:33;2.2;85
67893;DHT22;54688;52.376;16.744;2023-11-19T13:31:36;2.2;84.7
67893;DHT22;54688;52.376;16.744;2023-11-19T13:34:38;2.2;84.7
67893;DHT22;54688;52.376;16.744;2023-11-19T13:37:40;2.2;84.8
67893;DHT22;54688;52.376;16.744;2023-11-19T13:40:43;2.1;85.8
67893;DHT22;54688;52.376;16.744;2023-11-19T13:43:45;2.2;85.1
67893;DHT22;54688;52.376;16.744;2023-11-19T13:46:47;2.2;85.5
67893;DHT22;54688;52.376;16.744;2023-11-19T13:49:50;2.2;85.1
67893;DHT22;54688;52.376;16.744;2023-11-19T13:52:53;2.2;85.2
67893;DHT22;54688;52.376;16.744;2023-11-19T13:55:55;2.3;85.3
67893;DHT22;54688;52.376;16.744;2023-11-19T13:58:57;2.3;85.3
67893;DHT22;54688;52.376;16.744;2023-11-19T14:02:00;2.3;85.4
67893;DHT22;54688;52.376;16.744;2023-11-19T14:05:02;2.4;85.4
67893;DHT22;54688;52.376;16.744;2023-11-19T14:08:05;2.4;85.3
67893;DHT22;54688;52.376;16.744;2023-11-19T14:11:07;2.4;85.5
67893;DHT22;54688;52.376;16.744;2023-11-19T14:14:09;2.4;86.2
67893;DHT22;54688;52.376;16.744;2023-11-19T14:17:11;2.3;85.6
67893;DHT22;54688;52.376;16.744;2023-11-19T14:20:14;2.4;86.3
67893;DHT22;54688;52.376;16.744;2023-11-19T14:23:16;2.4;86.3
67893;DHT22;54688;52.376;16.744;2023-11-19T14:26:18;2.3;85.8
67893;DHT22;54688;52.376;16.744;2023-11-19T14:29:21;2.4;85.9
67893;DHT22;54688;52.376;16.744;2023-11-19T14:32:22;2.4;86
67893;DHT22;54688;52.376;16.744;2023-11-19T14:35:25;2.5;86.2
67893;DHT22;54688;52.376;16.744;2023-11-19T14:38:27;2.5;86.1
67893;DHT22;54688;52.376;16.744;2023-11-19T14:41:30;2.5;85.4
67893;DHT22;54688;52.376;16.744;2023-11-19T14:44:31;2.6;86.2
67893;DHT22;54688;52.376;16.744;2023-11-19T14:47:34;2.6;86.3
67893;DHT22;54688;52.376;16.744;2023-11-19T14:50:36;2.6;85.6
67893;DHT22;54688;52.376;16.744;2023-11-19T14:53:39;2.6;86.2
67893;DHT22;54688;52.376;16.744;2023-11-19T14:56:41;2.7;86.3
67893;DHT22;54688;52.376;16.744;2023-11-19T14:59:43;2.7;86.9
67893;DHT22;54688;52.376;16.744;2023-11-19T15:02:46;2.7;87.1
67893;DHT22;54688;52.376;16.744;2023-11-19T15:05:48;2.7;86.4
67893;DHT22;54688;52.376;16.744;2023-11-19T15:08:50;2.8;86.5
67893;DHT22;54688;52.376;16.744;2023-11-19T15:11:53;2.8;86.3
67893;DHT22;54688;52.376;16.744;2023-11-19T15:14:55;2.8;86.5
67893;DHT22;54688;52.376;16.744;2023-11-19T15:17:57;2.8;86.2
67893;DHT22;54688;52.376;16.744;2023-11-19T15:20:59;2.8;85.9
67893;DHT22;54688;52.376;16.744;2023-11-19T15:24:01;2.8;86
67893;DHT22;54688;52.376;16.744;2023-11-19T15:27:03;2.8;86
67893;DHT22;54688;52.376;16.744;2023-11-19T15:30:06;2.8;86.2
67893;DHT22;54688;52.376;16.744;2023-11-19T15:33:08;2.8;86.2
67893;DHT22;54688;52.376;16.744;2023-11-19T15:36:11;2.9;86.1
67893;DHT22;54688;52.376;16.744;2023-11-19T15:39:14;2.9;87.1
67893;DHT22;54688;52.376;16.744;2023-11-19T15:42:17;3;86.2
67893;DHT22;54688;52.376;16.744;2023-11-19T15:45:19;3.1;87.3
67893;DHT22;54688;52.376;16.744;2023-11-19T15:48:21;3.2;87.7
67893;DHT22;54688;52.376;16.744;2023-11-19T15:51:24;3.3;87.7
67893;DHT22;54688;52.376;16.744;2023-11-19T15:54:26;3.4;87.2
67893;DHT22;54688;52.376;16.744;2023-11-19T15:57:29;3.5;87.4
67893;DHT22;54688;52.376;16.744;2023-11-19T16:00:31;3.6;87.5
67893;DHT22;54688;52.376;16.744;2023-11-19T16:03:34;3.7;87.7
67893;DHT22;54688;52.376;16.744;2023-11-19T16:06:36;3.7;86.7
67893;DHT22;54688;52.376;16.744;2023-11-19T16:09:38;3.8;87.6
67893;DHT22;54688;52.376;16.744;2023-11-19T16:12:40;3.9;87.5
67893;DHT22;54688;52.376;16.744;2023-11-19T16:15:42;3.9;87.1
67893;DHT22;54688;52.376;16.744;2023-11-19T16:18:44;4;87.8
67893;DHT22;54688;52.376;16.744;2023-11-19T16:21:47;4.1;87.9
67893;DHT22;54688;52.376;16.744;2023-11-19T16:24:49;4.1;87.8
67893;DHT22;54688;52.376;16.744;2023-11-19T16:27:52;4.2;87.7
67893;DHT22;54688;52.376;16.744;2023-11-19T16:30:54;4.2;88.1
67893;DHT22;54688;52.376;16.744;2023-11-19T16:33:56;4.3;88.2
67893;DHT22;54688;52.376;16.744;2023-11-19T16:36:59;4.3;88
67893;DHT22;54688;52.376;16.744;2023-11-19T16:40:01;4.4;88.2
67893;DHT22;54688;52.376;16.744;2023-11-19T16:43:04;4.3;88.2
67893;DHT22;54688;52.376;16.744;2023-11-19T16:46:06;4.4;88.6
67893;DHT22;54688;52.376;16.744;2023-11-19T16:49:09;4.5;88.5
67893;DHT22;54688;52.376;16.744;2023-11-19T16:52:11;4.5;88.8
67893;DHT22;54688;52.376;16.744;2023-11-19T16:55:13;4.6;88.9
67893;DHT22;54688;52.376;16.744;2023-11-19T16:58:16;4.7;89.2
67893;DHT22;54688;52.376;16.744;2023-11-19T17:01:18;4.7;89.3
67893;DHT22;54688;52.376;16.744;2023-11-19T17:04:20;4.8;89
67893;DHT22;54688;52.376;16.744;2023-11-19T17:07:22;4.9;89.1
67893;DHT22;54688;52.376;16.744;2023-11-19T17:10:25;5;89.1
67893;DHT22;54688;52.376;16.744;2023-11-19T17:13:27;5;88.5
67893;DHT22;54688;52.376;16.744;2023-11-19T17:16:29;5.1;88.8
67893;DHT22;54688;52.376;16.744;2023-11-19T17:19:32;5.1;89.2
67893;DHT22;54688;52.376;16.744;2023-11-19T17:22:35;5.2;89
67893;DHT22;54688;52.376;16.744;2023-11-19T17:25:38;5.2;89
67893;DHT22;54688;52.376;16.744;2023-11-19T17:28:41;5.3;88.9
67893;DHT22;54688;52.376;16.744;2023-11-19T17:31:43;5.4;90
67893;DHT22;54688;52.376;16.744;2023-11-19T17:34:44;5.4;89.7
67893;DHT22;54688;52.376;16.744;2023-11-19T17:37:47;5.5;89.8
67893;DHT22;54688;52.376;16.744;2023-11-19T17:40:49;5.6;89.8
67893;DHT22;54688;52.376;16.744;2023-11-19T17:43:52;5.7;89.3
67893;DHT22;54688;52.376;16.744;2023-11-19T17:46:54;5.8;88.9
67893;DHT22;54688;52.376;16.744;2023-11-19T17:49:56;5.8;89.7
67893;DHT22;54688;52.376;16.744;2023-11-19T17:52:59;5.9;90
67893;DHT22;54688;52.376;16.744;2023-11-19T17:56:01;6.1;90.2
67893;DHT22;54688;52.376;16.744;2023-11-19T17:59:04;6.2;90.3
67893;DHT22;54688;52.376;16.744;2023-11-19T18:02:06;6.3;90.3
67893;DHT22;54688;52.376;16.744;2023-11-19T18:05:09;6.4;90.4
67893;DHT22;54688;52.376;16.744;2023-11-19T18:08:11;6.4;90.5
67893;DHT22;54688;52.376;16.744;2023-11-19T18:11:13;6.6;90.7
67893;DHT22;54688;52.376;16.744;2023-11-19T18:14:15;6.6;90.8
67893;DHT22;54688;52.376;16.744;2023-11-19T18:17:18;6.7;90.5
67893;DHT22;54688;52.376;16.744;2023-11-19T18:20:20;6.9;90.5
67893;DHT22;54688;52.376;16.744;2023-11-19T18:23:22;6.9;90.6
67893;DHT22;54688;52.376;16.744;2023-11-19T18:26:24;6.9;90.4
67893;DHT22;54688;52.376;16.744;2023-11-19T18:29:27;7;90.5
67893;DHT22;54688;52.376;16.744;2023-11-19T18:32:29;7;90.6
67893;DHT22;54688;52.376;16.744;2023-11-19T18:35:32;7.1;90.4
67893;DHT22;54688;52.376;16.744;2023-11-19T18:38:34;7.1;90
67893;DHT22;54688;52.376;16.744;2023-11-19T18:41:37;7.1;90.1
67893;DHT22;54688;52.376;16.744;2023-11-19T18:44:39;7.1;90.5
67893;DHT22;54688;52.376;16.744;2023-11-19T18:47:41;7.1;90
67893;DHT22;54688;52.376;16.744;2023-11-19T18:50:44;7.1;90.2
67893;DHT22;54688;52.376;16.744;2023-11-19T18:53:46;7.1;89.9
67893;DHT22;54688;52.376;16.744;2023-11-19T18:56:48;7.1;90.3
67893;DHT22;54688;52.376;16.744;2023-11-19T18:59:50;7.2;89.9
67893;DHT22;54688;52.376;16.744;2023-11-19T19:02:53;7.2;89.9
67893;DHT22;54688;52.376;16.744;2023-11-19T19:05:55;7.2;89.8
67893;DHT22;54688;52.376;16.744;2023-11-19T19:08:57;7.3;89.9
67893;DHT22;54688;52.376;16.744;2023-11-19T19:12:00;7.2;89.6
67893;DHT22;54688;52.376;16.744;2023-11-19T19:15:02;7.2;89.8
67893;DHT22;54688;52.376;16.744;2023-11-19T19:18:05;7.3;90.1
67893;DHT22;54688;52.376;16.744;2023-11-19T19:21:07;7.3;90.3
67893;DHT22;54688;52.376;16.744;2023-11-19T19:24:10;7.3;90.1
67893;DHT22;54688;52.376;16.744;2023-11-19T19:27:12;7.4;90.6
67893;DHT22;54688;52.376;16.744;2023-11-19T19:30:14;7.4;90
67893;DHT22;54688;52.376;16.744;2023-11-19T19:33:17;7.4;90.2
67893;DHT22;54688;52.376;16.744;2023-11-19T19:36:20;7.4;90.2
67893;DHT22;54688;52.376;16.744;2023-11-19T19:39:22;7.5;90.4
67893;DHT22;54688;52.376;16.744;2023-11-19T19:42:25;7.5;90.3
67893;DHT22;54688;52.376;16.744;2023-11-19T19:45:27;7.6;90.3
67893;DHT22;54688;52.376;16.744;2023-11-19T19:48:29;7.6;90.3
67893;DHT22;54688;52.376;16.744;2023-11-19T19:51:31;7.6;90.4
67893;DHT22;54688;52.376;16.744;2023-11-19T19:54:34;7.6;90.4
67893;DHT22;54688;52.376;16.744;2023-11-19T19:57:36;7.7;90.4
67893;DHT22;54688;52.376;16.744;2023-11-19T20:00:38;7.7;90.3
67893;DHT22;54688;52.376;16.744;2023-11-19T20:03:40;7.7;90.4